Time;durP1;ratioP1;P1;durP2;ratioP2;P2;SDS_P1;SDS_P2;PMS_P1;PMS_P2;Temp;Humidity;BMP_temperature;BMP_pressure;BME280_temperature;BME280_humidity;BME280_pressure;Samples;Min_cycle;Max_cycle;Signal;HPM_P1;HPM_P2
2021/04/18 00:01:44;;;;;;;10.82;5.40;;;4.90;99.90;;;;;;5113605;28;20375;-71
2021/04/18 00:04:19;;;;;;;12.00;5.72;;;4.90;99.90;;;;;;5113308;28;20102;-72
2021/04/18 00:06:44;;;;;;;12.35;6.13;;;4.90;99.90;;;;;;5113459;28;20137;-71
2021/04/18 00:09:11;;;;;;;13.13;5.93;;;4.80;99.90;;;;;;5113554;28;20126;-71
2021/04/18 00:11:38;;;;;;;14.55;6.25;;;4.80;99.90;;;;;;5112411;28;20024;-72
2021/04/18 00:14:05;;;;;;;14.75;7.88;;;4.80;99.90;;;;;;5110483;28;20039;-72
2021/04/18 00:16:31;;;;;;;15.30;6.10;;;4.80;99.90;;;;;;5101782;28;20053;-71
2021/04/18 00:18:57;;;;;;;12.57;6.32;;;4.80;99.90;;;;;;5112464;28;20180;-71
2021/04/18 00:21:22;;;;;;;11.85;6.30;;;4.70;99.90;;;;;;5112948;28;20034;-72
2021/04/18 00:23:48;;;;;;;20.27;6.63;;;4.70;99.90;;;;;;5113280;28;20023;-71
2021/04/18 00:26:14;;;;;;;14.70;5.47;;;4.70;99.90;;;;;;5112597;28;20016;-71
2021/04/18 00:28:39;;;;;;;16.10;6.43;;;4.70;99.90;;;;;;5113113;27;20038;-71
2021/04/18 00:31:05;;;;;;;13.38;6.88;;;4.60;99.90;;;;;;5112902;28;20088;-71
2021/04/18 00:33:36;;;;;;;16.67;6.57;;;4.60;99.90;;;;;;5112152;28;20042;-71
2021/04/18 00:36:03;;;;;;;14.35;7.50;;;4.50;99.90;;;;;;5112903;28;20051;-71
2021/04/18 00:38:28;;;;;;;19.42;7.63;;;4.50;99.90;;;;;;5112655;28;20135;-71
2021/04/18 00:40:54;;;;;;;14.95;6.47;;;4.50;99.90;;;;;;5112424;28;20433;-71
2021/04/18 00:43:20;;;;;;;17.88;8.38;;;4.50;99.90;;;;;;5112452;28;20035;-72
2021/04/18 00:45:45;;;;;;;18.70;6.55;;;4.50;99.90;;;;;;5100797;28;20089;-71
2021/04/18 00:48:11;;;;;;;11.60;6.78;;;4.50;99.90;;;;;;5109472;28;20100;-71
2021/04/18 00:50:38;;;;;;;10.15;6.07;;;4.50;99.90;;;;;;5112685;28;20414;-71
2021/04/18 00:53:07;;;;;;;27.02;6.93;;;4.50;99.90;;;;;;5112623;28;20076;-71
2021/04/18 00:55:40;;;;;;;16.58;7.03;;;4.40;99.90;;;;;;5111981;28;20019;-72
2021/04/18 00:58:07;;;;;;;13.82;6.85;;;4.50;99.90;;;;;;5112670;28;20125;-72
2021/04/18 01:00:34;;;;;;;14.18;7.38;;;4.40;99.90;;;;;;5103925;28;20367;-72
2021/04/18 01:03:00;;;;;;;8.63;5.88;;;4.40;99.90;;;;;;5106184;28;20035;-72
2021/04/18 01:05:25;;;;;;;15.23;6.45;;;4.40;99.90;;;;;;5112868;28;20012;-70
2021/04/18 01:07:51;;;;;;;12.65;7.03;;;4.40;99.90;;;;;;5120780;28;20064;-71
2021/04/18 01:10:18;;;;;;;12.98;6.43;;;4.40;99.90;;;;;;5117389;28;20425;-71
2021/04/18 01:12:44;;;;;;;12.75;6.85;;;4.40;99.90;;;;;;5105115;28;20103;-71
2021/04/18 01:15:12;;;;;;;18.60;7.30;;;4.40;99.90;;;;;;5095404;28;20020;-72
2021/04/18 01:17:38;;;;;;;18.85;7.40;;;4.40;99.90;;;;;;5111393;28;20123;-72
2021/04/18 01:20:07;;;;;;;10.10;6.75;;;4.40;99.90;;;;;;5117580;28;20023;-71
2021/04/18 01:22:33;;;;;;;16.02;6.35;;;4.40;99.90;;;;;;5113749;28;20050;-72
2021/04/18 01:24:58;;;;;;;14.45;7.05;;;4.40;99.90;;;;;;5115855;28;20440;-71
2021/04/18 01:27:24;;;;;;;21.17;8.63;;;4.40;99.90;;;;;;5112448;28;20020;-72
2021/04/18 01:29:53;;;;;;;16.77;6.63;;;4.40;99.90;;;;;;5116195;28;20058;-72
2021/04/18 01:32:21;;;;;;;12.95;6.45;;;4.40;99.90;;;;;;5117019;28;20110;-72
2021/04/18 01:34:47;;;;;;;13.60;6.15;;;4.40;99.90;;;;;;5117284;28;20073;-71
2021/04/18 01:37:14;;;;;;;7.88;5.85;;;4.30;99.90;;;;;;5116624;28;20023;-72
2021/04/18 01:39:40;;;;;;;18.73;7.13;;;4.20;99.90;;;;;;5116030;28;20031;-72
2021/04/18 01:42:07;;;;;;;13.50;6.88;;;4.20;99.90;;;;;;5116451;28;20034;-71
2021/04/18 01:44:33;;;;;;;10.18;6.25;;;4.20;99.90;;;;;;5114661;28;20023;-72
2021/04/18 01:46:59;;;;;;;18.08;7.00;;;4.10;99.90;;;;;;5116530;27;20428;-71
2021/04/18 01:49:25;;;;;;;12.65;6.72;;;4.10;99.90;;;;;;5136119;27;20470;-71
2021/04/18 01:51:50;;;;;;;15.70;6.85;;;4.10;99.90;;;;;;5135940;27;20160;-72
2021/04/18 01:54:16;;;;;;;15.32;7.60;;;4.10;99.90;;;;;;5136511;27;20114;-71
2021/04/18 01:56:44;;;;;;;11.55;7.25;;;4.20;99.90;;;;;;5135934;27;20020;-72
2021/04/18 01:59:13;;;;;;;16.45;7.88;;;4.20;99.90;;;;;;5136354;27;20038;-72
2021/04/18 02:01:39;;;;;;;22.48;7.97;;;4.20;99.90;;;;;;5135968;27;20040;-72
2021/04/18 02:04:19;;;;;;;25.85;7.95;;;4.20;99.90;;;;;;5135930;27;20917;-71
2021/04/18 02:06:45;;;;;;;22.65;8.38;;;4.30;99.90;;;;;;5136311;27;20031;-71
2021/04/18 02:09:11;;;;;;;21.90;7.75;;;4.30;99.90;;;;;;5136035;27;20134;-72
2021/04/18 02:11:39;;;;;;;22.45;8.25;;;4.30;99.90;;;;;;5135656;27;20391;-71
2021/04/18 02:14:06;;;;;;;18.70;8.32;;;4.30;99.90;;;;;;5133236;27;20026;-71
2021/04/18 02:16:31;;;;;;;20.13;8.90;;;4.30;99.90;;;;;;5124566;27;20027;-71
2021/04/18 02:18:57;;;;;;;15.25;7.30;;;4.30;99.90;;;;;;5135424;27;20031;-71
2021/04/18 02:21:23;;;;;;;24.52;8.82;;;4.30;99.90;;;;;;5135880;27;20057;-72
2021/04/18 02:23:48;;;;;;;21.50;7.75;;;4.30;99.90;;;;;;5136030;27;20027;-71
2021/04/18 02:26:14;;;;;;;20.08;7.82;;;4.30;99.90;;;;;;5135054;27;20011;-71
2021/04/18 02:28:39;;;;;;;13.77;7.35;;;4.30;99.90;;;;;;5135773;27;20035;-71
2021/04/18 02:31:05;;;;;;;15.10;7.35;;;4.20;99.90;;;;;;5136057;27;20391;-71
2021/04/18 02:33:30;;;;;;;16.27;7.80;;;4.20;99.90;;;;;;5135061;27;20470;-71
2021/04/18 02:35:56;;;;;;;11.15;7.13;;;4.20;99.90;;;;;;5135704;27;20019;-71
2021/04/18 02:38:22;;;;;;;12.70;8.73;;;4.20;99.90;;;;;;5135292;27;20019;-71
2021/04/18 02:40:47;;;;;;;14.35;7.38;;;4.20;99.90;;;;;;5135001;27;20027;-71
2021/04/18 02:43:13;;;;;;;12.77;7.53;;;4.10;99.90;;;;;;5135807;27;20075;-70
2021/04/18 02:45:38;;;;;;;19.15;6.95;;;4.10;99.90;;;;;;5135509;27;20428;-71
2021/04/18 02:48:04;;;;;;;34.55;6.38;;;4.10;99.90;;;;;;5124535;27;20287;-72
2021/04/18 02:50:30;;;;;;;11.15;5.88;;;4.10;99.90;;;;;;5114739;28;20024;-72
2021/04/18 02:52:55;;;;;;;10.80;5.72;;;4.00;99.90;;;;;;5113666;28;20122;-71
2021/04/18 02:55:21;;;;;;;32.53;5.82;;;4.00;99.90;;;;;;5112771;28;20039;-70
2021/04/18 02:57:46;;;;;;;15.45;5.40;;;4.00;99.90;;;;;;5115048;28;20085;-70
2021/04/18 03:00:12;;;;;;;11.88;5.40;;;4.00;99.90;;;;;;5108453;28;20388;-72
2021/04/18 03:02:38;;;;;;;15.00;6.35;;;4.00;99.90;;;;;;5095597;28;20077;-72
2021/04/18 03:05:05;;;;;;;41.80;8.23;;;4.00;99.90;;;;;;5097824;28;20398;-70
2021/04/18 03:07:30;;;;;;;33.35;6.72;;;4.00;99.90;;;;;;5104903;28;20479;-72
2021/04/18 03:09:56;;;;;;;41.10;5.53;;;3.90;99.90;;;;;;5111460;28;20035;-71
2021/04/18 03:12:21;;;;;;;17.65;4.88;;;3.90;99.90;;;;;;5112470;28;20026;-71
2021/04/18 03:14:47;;;;;;;21.88;4.80;;;3.90;99.90;;;;;;5114175;28;20120;-71
2021/04/18 03:17:13;;;;;;;22.70;5.70;;;3.90;99.90;;;;;;5114769;28;20020;-71
2021/04/18 03:19:38;;;;;;;8.18;4.80;;;3.90;99.90;;;;;;5103925;28;20459;-72
2021/04/18 03:22:05;;;;;;;44.42;4.50;;;3.90;99.90;;;;;;5116260;28;20020;-72
2021/04/18 03:24:31;;;;;;;26.83;4.15;;;3.80;99.90;;;;;;5124874;28;20015;-72
2021/04/18 03:26:57;;;;;;;36.15;4.28;;;3.70;99.90;;;;;;5119774;28;20051;-72
2021/04/18 03:29:22;;;;;;;13.27;4.80;;;3.70;99.90;;;;;;5113466;28;20042;-72
2021/04/18 03:31:48;;;;;;;20.90;4.18;;;3.70;99.90;;;;;;5114289;28;20027;-72
2021/04/18 03:34:13;;;;;;;17.83;3.70;;;3.70;99.90;;;;;;5114233;28;20047;-71
2021/04/18 03:36:39;;;;;;;14.77;3.72;;;3.60;99.90;;;;;;5098504;28;20031;-71
2021/04/18 03:39:05;;;;;;;20.33;3.90;;;3.60;99.90;;;;;;5114006;28;20099;-71
2021/04/18 03:41:30;;;;;;;7.90;4.18;;;3.60;99.90;;;;;;5113654;28;20043;-71
2021/04/18 03:43:56;;;;;;;12.95;3.72;;;3.60;99.90;;;;;;5113613;28;20039;-71
2021/04/18 03:46:22;;;;;;;29.58;3.88;;;3.60;99.90;;;;;;5113479;28;20020;-72
2021/04/18 03:48:47;;;;;;;9.02;3.75;;;3.50;99.90;;;;;;5113538;28;20138;-72
2021/04/18 03:51:13;;;;;;;12.13;4.20;;;3.50;99.90;;;;;;5112624;28;20375;-72
2021/04/18 03:53:38;;;;;;;13.50;4.07;;;3.40;99.90;;;;;;5113224;27;20045;-71
2021/04/18 03:56:05;;;;;;;6.07;4.13;;;3.40;99.90;;;;;;5102365;28;20479;-71
2021/04/18 03:58:31;;;;;;;6.38;3.42;;;3.40;99.90;;;;;;5110087;28;20088;-71
2021/04/18 04:00:56;;;;;;;5.53;3.50;;;3.40;99.90;;;;;;5113772;28;20374;-72
2021/04/18 04:03:22;;;;;;;11.68;3.55;;;3.30;99.90;;;;;;5112687;28;20081;-71
2021/04/18 04:05:48;;;;;;;7.75;3.75;;;3.30;99.90;;;;;;5113628;28;20477;-71
2021/04/18 04:08:13;;;;;;;7.30;3.42;;;3.30;99.90;;;;;;5113721;28;20067;-72
2021/04/18 04:10:39;;;;;;;9.32;4.20;;;3.30;99.90;;;;;;5098206;28;20012;-71
2021/04/18 04:13:04;;;;;;;13.77;4.65;;;3.30;99.90;;;;;;5113439;28;20019;-72
2021/04/18 04:15:30;;;;;;;7.22;4.50;;;3.30;99.90;;;;;;5112603;28;20023;-71
2021/04/18 04:17:55;;;;;;;5.38;4.25;;;3.30;99.90;;;;;;5112439;28;20019;-72
2021/04/18 04:20:21;;;;;;;9.27;5.65;;;3.20;99.90;;;;;;5112745;28;20031;-71
2021/04/18 04:22:46;;;;;;;8.40;5.22;;;3.20;99.90;;;;;;5098840;28;20115;-70
2021/04/18 04:25:13;;;;;;;6.45;4.60;;;3.30;99.90;;;;;;5112248;28;20455;-71
2021/04/18 04:27:39;;;;;;;7.35;6.38;;;3.20;99.90;;;;;;5112563;28;20022;-71
2021/04/18 04:30:06;;;;;;;12.68;4.82;;;3.20;99.90;;;;;;5112925;28;20072;-72
2021/04/18 04:32:31;;;;;;;12.45;4.43;;;3.30;99.90;;;;;;5111715;28;20036;-72
2021/04/18 04:34:57;;;;;;;7.38;4.05;;;3.20;99.90;;;;;;5112779;28;20114;-72
2021/04/18 04:37:22;;;;;;;28.08;4.50;;;3.20;99.90;;;;;;5112201;28;20024;-72
2021/04/18 04:39:48;;;;;;;19.40;4.65;;;3.30;99.90;;;;;;5112039;28;20019;-72
2021/04/18 04:42:14;;;;;;;20.80;5.55;;;3.30;99.90;;;;;;5112861;28;20348;-72
2021/04/18 04:44:39;;;;;;;23.38;4.78;;;3.30;99.90;;;;;;5112423;28;20481;-71
2021/04/18 04:47:05;;;;;;;22.60;5.80;;;3.30;99.90;;;;;;5111976;28;20048;-71
2021/04/18 04:49:30;;;;;;;18.45;5.43;;;3.30;99.90;;;;;;5112214;28;20438;-71
2021/04/18 04:51:56;;;;;;;14.48;6.20;;;3.30;99.90;;;;;;5112616;28;20030;-71
2021/04/18 04:54:21;;;;;;;13.18;5.50;;;3.30;99.90;;;;;;5111484;28;20031;-71
2021/04/18 04:56:47;;;;;;;10.68;5.97;;;3.30;99.90;;;;;;5112700;28;20012;-71
2021/04/18 04:59:13;;;;;;;7.78;5.50;;;3.30;99.90;;;;;;5112588;28;20026;-71
2021/04/18 05:01:38;;;;;;;5.30;4.78;;;3.30;99.90;;;;;;5110863;28;20387;-71
2021/04/18 05:04:10;;;;;;;8.98;5.15;;;3.30;99.90;;;;;;5112647;28;20020;-71
2021/04/18 05:06:36;;;;;;;7.82;5.10;;;3.40;99.90;;;;;;5098058;28;20356;-71
2021/04/18 05:09:02;;;;;;;10.77;5.60;;;3.50;99.90;;;;;;5107926;28;20028;-72
2021/04/18 05:11:28;;;;;;;17.63;5.10;;;3.50;99.90;;;;;;5112395;28;20028;-72
2021/04/18 05:13:53;;;;;;;19.30;5.07;;;3.50;99.90;;;;;;5112631;28;20092;-72
2021/04/18 05:16:19;;;;;;;22.48;5.25;;;3.50;99.90;;;;;;5112139;28;20016;-72
2021/04/18 05:18:44;;;;;;;23.55;6.50;;;3.60;99.90;;;;;;5112916;28;20027;-72
2021/04/18 05:21:13;;;;;;;24.70;6.28;;;3.60;99.90;;;;;;5117004;28;20019;-72
2021/04/18 05:23:39;;;;;;;11.25;5.32;;;3.70;99.90;;;;;;5113704;28;20031;-72
2021/04/18 05:26:05;;;;;;;53.60;5.03;;;3.70;99.90;;;;;;5124914;28;20427;-72
2021/04/18 05:28:31;;;;;;;22.23;6.00;;;3.80;99.90;;;;;;5112029;28;20046;-71
2021/04/18 05:30:57;;;;;;;12.15;5.15;;;3.80;99.90;;;;;;5111766;28;20149;-71
2021/04/18 05:33:23;;;;;;;36.88;5.28;;;3.90;99.90;;;;;;5111506;28;20475;-71
2021/04/18 05:35:49;;;;;;;25.02;5.50;;;3.80;99.90;;;;;;5111002;28;20031;-70
2021/04/18 05:38:14;;;;;;;11.95;5.15;;;3.90;99.90;;;;;;5111534;28;20028;-71
2021/04/18 05:40:40;;;;;;;23.33;5.63;;;4.00;99.90;;;;;;5111854;28;20030;-70
2021/04/18 05:43:05;;;;;;;31.02;5.78;;;4.00;99.90;;;;;;5111073;28;20019;-71
2021/04/18 05:45:31;;;;;;;20.58;5.57;;;4.10;99.90;;;;;;5111639;28;20016;-70
2021/04/18 05:47:57;;;;;;;28.73;4.60;;;4.20;99.90;;;;;;5111785;28;20047;-72
2021/04/18 05:50:23;;;;;;;43.83;5.25;;;4.20;99.90;;;;;;5110903;28;20027;-71
2021/04/18 05:52:48;;;;;;;28.13;4.38;;;4.30;99.90;;;;;;5111782;28;20035;-71
2021/04/18 05:55:14;;;;;;;30.40;4.50;;;4.30;99.90;;;;;;5111831;28;20023;-71
2021/04/18 05:57:40;;;;;;;28.95;4.40;;;4.30;99.90;;;;;;5110897;28;20072;-72
2021/04/18 06:00:07;;;;;;;36.33;5.05;;;4.30;99.90;;;;;;5107766;28;20068;-71
2021/04/18 06:02:32;;;;;;;26.90;5.57;;;4.40;99.90;;;;;;5094306;28;20414;-71
2021/04/18 06:04:58;;;;;;;49.70;6.35;;;4.40;99.90;;;;;;5089906;28;20027;-72
2021/04/18 06:07:24;;;;;;;47.53;6.47;;;4.40;99.90;;;;;;5090422;28;20507;-72
2021/04/18 06:09:49;;;;;;;48.85;7.28;;;4.40;99.90;;;;;;5091618;28;20404;-71
2021/04/18 06:12:15;;;;;;;41.72;6.95;;;4.50;99.90;;;;;;5090861;28;20023;-72
2021/04/18 06:14:40;;;;;;;13.63;6.80;;;4.50;99.90;;;;;;5093153;28;20043;-72
2021/04/18 06:17:06;;;;;;;12.73;5.45;;;4.60;99.90;;;;;;5093801;28;20105;-70
2021/04/18 06:19:32;;;;;;;16.08;5.32;;;4.60;99.90;;;;;;5093947;28;20032;-70
2021/04/18 06:21:58;;;;;;;13.35;5.65;;;4.70;99.90;;;;;;5100647;28;20118;-71
2021/04/18 06:24:24;;;;;;;5.95;5.35;;;4.70;99.90;;;;;;5093390;28;20414;-70
2021/04/18 06:26:50;;;;;;;9.85;6.18;;;4.80;99.90;;;;;;5094493;28;20016;-71
2021/04/18 06:29:15;;;;;;;9.85;5.57;;;4.90;99.90;;;;;;5094512;28;20517;-71
2021/04/18 06:31:41;;;;;;;8.63;7.38;;;5.00;99.90;;;;;;5096764;28;20089;-71
2021/04/18 06:34:06;;;;;;;8.27;6.93;;;5.20;99.90;;;;;;5096741;28;20063;-71
2021/04/18 06:36:32;;;;;;;9.63;6.85;;;5.40;99.90;;;;;;5098525;28;20189;-70
2021/04/18 06:38:58;;;;;;;7.90;6.60;;;5.50;99.90;;;;;;5101204;28;20066;-71
2021/04/18 06:41:25;;;;;;;11.20;6.55;;;5.70;99.90;;;;;;5093040;28;20020;-70
2021/04/18 06:43:51;;;;;;;9.98;6.30;;;5.90;99.90;;;;;;5094073;28;20066;-71
2021/04/18 06:46:18;;;;;;;9.13;7.00;;;6.00;99.90;;;;;;5093122;28;20061;-70
2021/04/18 06:48:49;;;;;;;11.35;8.20;;;6.00;99.90;;;;;;5093733;28;20056;-72
2021/04/18 06:51:18;;;;;;;11.18;8.15;;;6.20;99.90;;;;;;5094352;28;20017;-72
2021/04/18 06:53:46;;;;;;;12.07;8.67;;;6.30;99.90;;;;;;5093181;28;20471;-71
2021/04/18 06:56:12;;;;;;;10.07;8.80;;;6.30;99.90;;;;;;5096639;28;20016;-71
2021/04/18 06:58:38;;;;;;;9.85;8.43;;;6.40;99.90;;;;;;5097095;28;20024;-71
2021/04/18 07:01:04;;;;;;;14.57;9.90;;;6.40;99.90;;;;;;5093563;28;20028;-70
2021/04/18 07:03:31;;;;;;;17.10;10.00;;;6.60;99.90;;;;;;5094335;28;20043;-71
2021/04/18 07:05:59;;;;;;;15.35;10.63;;;6.60;99.90;;;;;;5100167;28;20027;-71
2021/04/18 07:08:30;;;;;;;18.75;10.15;;;6.80;99.90;;;;;;5098866;28;20085;-72
2021/04/18 07:11:10;;;;;;;;;;;6.90;99.90;;;;;;5107180;28;20414;-74
2021/04/18 07:13:37;;;;;;;14.90;9.90;;;7.00;99.90;;;;;;5108144;28;19934;-73
2021/04/18 07:16:03;;;;;;;20.17;10.13;;;7.10;99.90;;;;;;5101688;28;20063;-74
2021/04/18 07:18:41;;;;;;;17.25;9.27;;;7.20;99.90;;;;;;5093709;28;20054;-74
2021/04/18 07:21:09;;;;;;;17.35;9.85;;;7.30;99.90;;;;;;5094485;28;20020;-75
2021/04/18 07:23:35;;;;;;;14.40;10.32;;;7.40;99.90;;;;;;5093950;28;20032;-73
2021/04/18 07:26:23;;;;;;;19.30;9.88;;;7.40;99.90;;;;;;5093607;28;20024;-74
2021/04/18 07:28:50;;;;;;;17.15;10.48;;;7.60;99.90;;;;;;5094933;28;20081;-75
2021/04/18 07:31:33;;;;;;;22.33;10.25;;;7.70;99.90;;;;;;5093673;28;20049;-73
2021/04/18 07:34:01;;;;;;;15.93;10.52;;;7.70;99.90;;;;;;5093709;28;20031;-74
2021/04/18 07:36:26;;;;;;;17.00;10.55;;;7.80;99.90;;;;;;5092867;28;20376;-73
2021/04/18 07:38:52;;;;;;;21.73;11.40;;;7.90;99.90;;;;;;5093666;28;20016;-73
2021/04/18 07:41:20;;;;;;;23.55;10.88;;;8.00;99.90;;;;;;5093586;28;20024;-74
2021/04/18 07:43:47;;;;;;;18.65;11.05;;;8.10;99.90;;;;;;5093166;28;20068;-75
2021/04/18 07:46:13;;;;;;;16.60;10.40;;;8.00;99.90;;;;;;5093936;28;20012;-75
2021/04/18 07:48:39;;;;;;;24.23;11.27;;;8.10;99.90;;;;;;5100713;28;20071;-71
2021/04/18 07:51:05;;;;;;;19.65;10.27;;;8.10;99.90;;;;;;5094588;28;20457;-74
2021/04/18 07:53:31;;;;;;;27.08;12.35;;;8.20;99.90;;;;;;5093886;28;20028;-75
2021/04/18 07:55:57;;;;;;;18.90;10.57;;;8.20;99.90;;;;;;5093306;28;20023;-72
2021/04/18 07:58:23;;;;;;;16.08;9.70;;;8.30;99.90;;;;;;5099080;28;20027;-74
2021/04/18 08:00:48;;;;;;;26.60;10.32;;;8.30;99.90;;;;;;5096391;28;20110;-74
2021/04/18 08:03:15;;;;;;;18.95;10.13;;;8.30;99.90;;;;;;5091064;28;20498;-73
2021/04/18 08:05:44;;;;;;;18.90;10.18;;;8.40;99.90;;;;;;5106599;28;20030;-75
2021/04/18 08:08:14;;;;;;;17.30;9.65;;;8.60;99.90;;;;;;5109080;28;20062;-74
2021/04/18 08:10:41;;;;;;;16.27;9.55;;;8.80;99.90;;;;;;5107487;28;20570;-72
2021/04/18 08:13:12;;;;;;;22.00;9.63;;;8.90;99.90;;;;;;5110305;28;20031;-74
2021/04/18 08:15:39;;;;;;;;;;;9.00;99.90;;;;;;5108716;28;20044;-74
2021/04/18 08:18:13;;;;;;;18.10;9.65;;;9.00;99.90;;;;;;5110576;28;19961;-74
2021/04/18 08:20:41;;;;;;;13.43;9.18;;;8.90;99.90;;;;;;5111369;28;20031;-74
2021/04/18 08:23:09;;;;;;;19.00;8.68;;;8.90;99.90;;;;;;5113082;28;20103;-74
2021/04/18 08:25:37;;;;;;;14.18;8.32;;;8.70;99.90;;;;;;5119326;28;20028;-74
2021/04/18 08:28:10;;;;;;;15.07;8.73;;;8.70;99.90;;;;;;5110627;27;20483;-74
2021/04/18 08:31:01;;;;;;;18.00;8.02;;;8.70;99.90;;;;;;5103930;28;20020;-73
2021/04/18 08:33:39;;;;;;;12.98;8.23;;;8.70;99.90;;;;;;5110205;28;20421;-75
2021/04/18 08:36:15;;;;;;;11.90;8.00;;;8.70;99.90;;;;;;5106371;28;20085;-74
2021/04/18 08:38:41;;;;;;;14.02;7.93;;;8.80;99.90;;;;;;5103449;28;20099;-74
2021/04/18 08:41:16;;;;;;;16.98;8.20;;;8.90;99.90;;;;;;5102871;28;20027;-74
2021/04/18 08:43:47;;;;;;;11.98;6.90;;;8.90;99.90;;;;;;5099464;28;20028;-75
2021/04/18 08:46:20;;;;;;;12.68;7.82;;;8.90;99.90;;;;;;5106390;28;20065;-74
2021/04/18 08:48:45;;;;;;;15.85;7.75;;;8.90;99.90;;;;;;5115640;27;20039;-75
2021/04/18 08:51:11;;;;;;;18.10;8.35;;;8.90;99.90;;;;;;5125789;27;20516;-75
2021/04/18 08:53:57;;;;;;;17.00;8.35;;;8.90;99.90;;;;;;5128315;27;20126;-74
2021/04/18 08:56:42;;;;;;;14.55;8.48;;;9.00;99.90;;;;;;5125209;27;20027;-74
2021/04/18 08:59:12;;;;;;;21.70;8.90;;;9.00;99.90;;;;;;5127595;27;20475;-73
2021/04/18 09:01:38;;;;;;;15.63;9.02;;;9.10;99.90;;;;;;5127335;27;20031;-74
2021/04/18 09:04:09;;;;;;;17.08;9.57;;;9.00;99.90;;;;;;5126770;27;20024;-73
2021/04/18 09:06:36;;;;;;;11.75;9.93;;;9.10;99.90;;;;;;5121468;27;20474;-73
2021/04/18 09:09:05;;;;;;;18.70;9.98;;;9.10;99.90;;;;;;5123178;27;20071;-74
2021/04/18 09:11:44;;;;;;;18.48;9.77;;;9.30;99.90;;;;;;5124535;27;20027;-74
2021/04/18 09:14:10;;;;;;;16.08;8.18;;;9.30;99.90;;;;;;5127079;27;20027;-75
2021/04/18 09:16:38;;;;;;;17.98;10.75;;;9.30;99.90;;;;;;5123003;27;20015;-74
2021/04/18 09:19:25;;;;;;;15.63;8.13;;;9.50;99.90;;;;;;5122447;27;20372;-73
2021/04/18 09:22:04;;;;;;;18.67;10.23;;;9.40;99.90;;;;;;5123247;27;20023;-74
2021/04/18 09:24:32;;;;;;;16.95;10.27;;;9.50;99.90;;;;;;5126937;28;20015;-74
2021/04/18 09:27:03;;;;;;;16.48;10.30;;;9.60;99.90;;;;;;5130176;28;20039;-74
2021/04/18 09:29:29;;;;;;;15.25;10.45;;;9.70;99.90;;;;;;5133766;27;20036;-74
2021/04/18 09:31:58;;;;;;;18.85;12.00;;;9.90;99.90;;;;;;5126319;27;20015;-74
2021/04/18 09:34:25;;;;;;;21.98;11.45;;;9.90;99.90;;;;;;5121677;28;20077;-75
2021/04/18 09:36:53;;;;;;;20.92;11.55;;;9.90;99.90;;;;;;5124633;28;20020;-74
2021/04/18 09:39:20;;;;;;;17.45;9.63;;;9.90;99.90;;;;;;5101393;28;20019;-73
2021/04/18 09:41:46;;;;;;;15.73;8.40;;;9.90;99.90;;;;;;5118322;27;20044;-74
2021/04/18 09:44:27;;;;;;;16.63;8.68;;;9.80;99.90;;;;;;5124694;28;20031;-73
2021/04/18 09:46:58;;;;;;;13.18;9.65;;;9.80;99.90;;;;;;5125288;28;20479;-74
2021/04/18 09:49:24;;;;;;;23.88;11.15;;;9.80;99.90;;;;;;5098322;27;20126;-74
2021/04/18 09:51:51;;;;;;;18.30;10.57;;;9.90;99.90;;;;;;5129361;27;20012;-73
2021/04/18 09:54:32;;;;;;;16.63;9.93;;;10.10;99.90;;;;;;5126054;27;20031;-73
2021/04/18 09:57:10;;;;;;;14.82;9.98;;;10.20;99.90;;;;;;5125757;27;20093;-73
2021/04/18 09:59:36;;;;;;;21.98;12.40;;;10.30;99.90;;;;;;5124751;27;20375;-74
2021/04/18 10:02:28;;;;;;;19.90;11.18;;;10.40;99.90;;;;;;5128288;27;20015;-73
2021/04/18 10:05:13;;;;;;;19.90;11.00;;;10.50;99.90;;;;;;5118386;27;20032;-73
2021/04/18 10:07:39;;;;;;;18.20;9.20;;;10.50;99.90;;;;;;5124401;27;20080;-73
2021/04/18 10:10:06;;;;;;;12.02;8.80;;;10.40;99.90;;;;;;5129096;27;20031;-73
2021/04/18 10:12:51;;;;;;;12.05;8.60;;;10.40;99.90;;;;;;5125932;27;20027;-73
2021/04/18 10:15:27;;;;;;;13.15;8.75;;;10.40;99.90;;;;;;5122838;27;20019;-73
2021/04/18 10:17:52;;;;;;;18.02;8.07;;;10.40;99.90;;;;;;5121556;27;20443;-72
2021/04/18 10:20:26;;;;;;;17.15;9.98;;;10.50;99.90;;;;;;5127613;27;20107;-73
2021/04/18 10:23:09;;;;;;;16.95;9.70;;;10.60;99.90;;;;;;5134261;27;20027;-73
2021/04/18 10:25:37;;;;;;;11.32;8.60;;;10.80;99.90;;;;;;5129302;27;20033;-73
2021/04/18 10:28:04;;;;;;;11.95;8.90;;;10.70;99.90;;;;;;5133423;27;20031;-74
2021/04/18 10:30:30;;;;;;;12.57;8.82;;;10.80;99.90;;;;;;5129736;27;20172;-74
2021/04/18 10:32:56;;;;;;;11.30;8.35;;;11.00;99.90;;;;;;5128992;27;20111;-75
2021/04/18 10:35:22;;;;;;;19.42;7.97;;;11.00;99.90;;;;;;5128637;27;20027;-74
2021/04/18 10:37:47;;;;;;;14.45;8.45;;;11.00;99.90;;;;;;5126107;27;20015;-75
2021/04/18 10:40:19;;;;;;;15.55;8.90;;;11.90;99.90;;;;;;5128744;27;20023;-76
2021/04/18 10:42:44;;;;;;;17.58;7.47;;;11.00;99.90;;;;;;5127489;27;20110;-77
2021/04/18 10:45:12;;;;;;;12.60;8.45;;;11.20;99.90;;;;;;5124134;27;20451;-75
2021/04/18 10:47:38;;;;;;;14.15;7.68;;;11.10;99.90;;;;;;5122970;27;20048;-75
2021/04/18 10:50:04;;;;;;;9.27;7.22;;;11.20;99.90;;;;;;5113493;27;20031;-75
2021/04/18 10:52:32;;;;;;;18.35;8.15;;;11.30;99.90;;;;;;5102398;27;20036;-74
2021/04/18 10:54:57;;;;;;;13.93;7.78;;;11.40;99.90;;;;;;5101106;27;20024;-74
2021/04/18 10:57:24;;;;;;;20.77;7.53;;;11.40;99.90;;;;;;5117132;27;20065;-76
2021/04/18 10:59:50;;;;;;;11.25;6.90;;;11.30;99.90;;;;;;5107389;27;20109;-76
2021/04/18 11:02:16;;;;;;;12.55;6.07;;;11.40;99.90;;;;;;5106228;27;20016;-74
2021/04/18 11:04:43;;;;;;;9.38;6.40;;;11.50;99.90;;;;;;5113676;27;20394;-75
2021/04/18 11:07:09;;;;;;;8.27;6.38;;;11.60;99.90;;;;;;5105059;27;20023;-74
2021/04/18 11:09:38;;;;;;;13.30;6.65;;;11.60;99.90;;;;;;5106911;27;20036;-75
2021/04/18 11:12:16;;;;;;;12.73;7.32;;;11.70;99.90;;;;;;5104679;27;20035;-75
2021/04/18 11:14:43;;;;;;;8.63;6.72;;;11.70;99.90;;;;;;5107835;27;20549;-76
2021/04/18 11:17:09;;;;;;;9.40;7.35;;;11.70;99.90;;;;;;5103617;27;20027;-76
2021/04/18 11:19:34;;;;;;;8.45;6.43;;;11.70;99.90;;;;;;5119810;27;20076;-76
2021/04/18 11:22:00;;;;;;;9.75;7.25;;;11.70;99.90;;;;;;5116078;27;20379;-75
2021/04/18 11:24:26;;;;;;;14.90;7.20;;;11.80;99.90;;;;;;5114848;27;20386;-76
2021/04/18 11:26:51;;;;;;;9.80;6.30;;;11.80;99.90;;;;;;5109708;27;20020;-76
2021/04/18 11:29:17;;;;;;;8.25;5.82;;;11.90;99.90;;;;;;5117976;27;20031;-76
2021/04/18 11:31:44;;;;;;;11.43;6.22;;;11.90;99.90;;;;;;5121702;27;20024;-75
2021/04/18 11:34:10;;;;;;;11.02;6.20;;;12.00;99.90;;;;;;5112910;27;20035;-76
2021/04/18 11:36:36;;;;;;;10.05;6.28;;;12.10;99.90;;;;;;5109335;27;20049;-75
2021/04/18 11:39:01;;;;;;;9.15;5.20;;;12.10;99.90;;;;;;5115250;27;20575;-76
2021/04/18 11:41:27;;;;;;;10.23;5.15;;;12.20;98.30;;;;;;5108276;27;20027;-75
2021/04/18 11:43:52;;;;;;;6.13;4.50;;;12.20;96.80;;;;;;5107599;28;20020;-76
2021/04/18 11:46:18;;;;;;;7.82;4.85;;;12.30;96.00;;;;;;5110860;27;20392;-75
2021/04/18 11:48:43;;;;;;;7.13;4.60;;;12.30;94.40;;;;;;5123441;27;20051;-76
2021/04/18 11:51:12;;;;;;;7.47;4.93;;;12.30;94.80;;;;;;5124601;27;20468;-71
2021/04/18 11:53:37;;;;;;;8.55;5.18;;;12.40;95.60;;;;;;5131718;27;20103;-73
2021/04/18 11:56:03;;;;;;;7.57;4.07;;;12.50;95.20;;;;;;5129227;27;20011;-75
2021/04/18 11:58:28;;;;;;;7.38;4.20;;;12.40;90.30;;;;;;5132619;27;20084;-72
2021/04/18 12:00:54;;;;;;;5.82;4.40;;;12.50;89.00;;;;;;5128753;27;20384;-73
2021/04/18 12:03:19;;;;;;;5.90;4.60;;;12.40;88.60;;;;;;5130645;27;20023;-72
2021/04/18 12:05:45;;;;;;;7.22;4.18;;;12.40;90.50;;;;;;5129238;27;20038;-74
2021/04/18 12:08:11;;;;;;;7.07;5.13;;;12.60;91.00;;;;;;5129055;27;20498;-74
2021/04/18 12:10:37;;;;;;;4.65;3.33;;;12.80;93.20;;;;;;5122240;27;20023;-75
2021/04/18 12:13:03;;;;;;;6.88;4.63;;;12.90;88.80;;;;;;5118179;27;20024;-74
2021/04/18 12:15:29;;;;;;;8.02;5.45;;;13.00;90.30;;;;;;5118231;27;20020;-74
2021/04/18 12:17:54;;;;;;;6.45;4.93;;;13.10;90.20;;;;;;5116257;27;21543;-75
2021/04/18 12:20:20;;;;;;;10.10;5.07;;;13.20;91.90;;;;;;5113368;27;20070;-74
2021/04/18 12:22:46;;;;;;;6.43;4.45;;;13.30;91.50;;;;;;5112465;28;20043;-74
2021/04/18 12:25:12;;;;;;;4.25;3.85;;;13.30;90.70;;;;;;5113517;27;20420;-74
2021/04/18 12:27:39;;;;;;;8.27;3.75;;;13.40;88.50;;;;;;5112455;28;20487;-73
2021/04/18 12:30:06;;;;;;;7.65;5.45;;;13.40;86.50;;;;;;5112310;28;20032;-73
2021/04/18 12:32:31;;;;;;;7.18;5.72;;;13.40;89.90;;;;;;5112322;28;20547;-74
2021/04/18 12:34:57;;;;;;;7.55;6.15;;;13.40;90.40;;;;;;5112738;28;20107;-74
2021/04/18 12:37:23;;;;;;;9.50;6.40;;;13.60;91.80;;;;;;5111972;28;20027;-73
2021/04/18 12:39:48;;;;;;;8.90;5.50;;;13.50;91.90;;;;;;5112700;28;20015;-74
2021/04/18 12:42:14;;;;;;;8.27;5.75;;;13.60;92.20;;;;;;5116276;27;20436;-74
2021/04/18 12:44:39;;;;;;;6.63;5.93;;;13.80;93.40;;;;;;5111987;28;20028;-75
2021/04/18 12:47:09;;;;;;;7.47;6.47;;;14.00;94.40;;;;;;5112589;28;20104;-74